createdAt,value
2023-04-28T00:00:25.576Z,5.45
2023-04-28T00:03:11.067Z,5.18
2023-04-28T00:05:56.214Z,4.65
2023-04-28T00:08:41.664Z,5.35
2023-04-28T00:11:27.117Z,5.25
2023-04-28T00:14:13.158Z,4.68
2023-04-28T00:16:59.258Z,4.95
2023-04-28T00:19:45.129Z,4.93
2023-04-28T00:22:31.216Z,4.78
2023-04-28T00:25:16.573Z,4.53
2023-04-28T00:28:02.166Z,3.97
2023-04-28T00:30:47.644Z,4.25
2023-04-28T00:33:32.861Z,4.60
2023-04-28T00:36:18.177Z,4.10
2023-04-28T00:39:03.598Z,3.70
2023-04-28T00:41:48.898Z,3.97
2023-04-28T00:44:35.384Z,3.92
2023-04-28T00:47:20.893Z,3.55
2023-04-28T00:50:06.534Z,4.20
2023-04-28T00:52:52.354Z,4.13
2023-04-28T00:55:38.486Z,3.72
2023-04-28T00:58:24.084Z,3.50
2023-04-28T01:01:10.147Z,4.05
2023-04-28T01:03:55.994Z,3.90
2023-04-28T01:06:43.873Z,3.72
2023-04-28T01:09:29.019Z,3.63
2023-04-28T01:12:14.891Z,4.07
2023-04-28T01:15:02.648Z,3.78
2023-04-28T01:17:48.795Z,3.58
2023-04-28T01:20:33.876Z,3.80
2023-04-28T01:23:19.398Z,3.35
2023-04-28T01:26:04.563Z,3.35
2023-04-28T01:28:49.789Z,3.90
2023-04-28T01:31:35.257Z,3.97
2023-04-28T01:34:20.510Z,3.83
2023-04-28T01:37:06.030Z,3.47
2023-04-28T01:39:51.558Z,4.28
2023-04-28T01:42:37.771Z,3.60
2023-04-28T01:45:22.877Z,4.43
2023-04-28T01:48:08.312Z,4.15
2023-04-28T01:50:53.633Z,4.47
2023-04-28T01:53:38.668Z,4.18
2023-04-28T01:56:24.242Z,4.97
2023-04-28T01:59:11.305Z,5.25
2023-04-28T02:01:56.799Z,5.43
2023-04-28T02:04:42.266Z,5.85
2023-04-28T02:07:27.550Z,5.93
2023-04-28T02:10:14.315Z,6.90
2023-04-28T02:12:59.703Z,6.00
2023-04-28T02:15:44.961Z,6.93
2023-04-28T02:18:31.400Z,6.90
2023-04-28T02:21:18.378Z,6.78
2023-04-28T02:24:04.134Z,7.18
2023-04-28T02:26:50.093Z,6.30
2023-04-28T02:29:36.308Z,6.10
2023-04-28T02:32:21.948Z,6.38
2023-04-28T02:35:09.853Z,6.25
2023-04-28T02:37:55.353Z,5.68
2023-04-28T02:40:40.606Z,5.93
2023-04-28T02:43:28.121Z,6.05
2023-04-28T02:46:13.471Z,6.03
2023-04-28T02:48:58.804Z,5.53
2023-04-28T02:51:44.118Z,5.47
2023-04-28T02:54:29.560Z,5.80
2023-04-28T02:57:16.177Z,5.82
2023-04-28T03:00:01.604Z,5.00
2023-04-28T03:02:52.842Z,5.97
2023-04-28T03:05:38.046Z,6.65
2023-04-28T03:08:23.881Z,5.40
2023-04-28T03:11:09.078Z,5.15
2023-04-28T03:13:54.222Z,5.15
2023-04-28T03:16:40.295Z,5.35
2023-04-28T03:19:26.473Z,5.28
2023-04-28T03:22:11.823Z,5.10
2023-04-28T03:24:57.026Z,5.55
2023-04-28T03:27:43.388Z,5.38
2023-04-28T03:30:29.033Z,5.45
2023-04-28T03:33:16.082Z,5.22
2023-04-28T03:36:01.599Z,5.05
2023-04-28T03:38:47.036Z,4.88
2023-04-28T03:41:32.641Z,5.55
2023-04-28T03:44:40.166Z,6.10
2023-04-28T03:47:26.175Z,5.60
2023-04-28T03:50:11.328Z,5.05
2023-04-28T03:52:56.662Z,5.03
2023-04-28T03:55:42.749Z,4.65
2023-04-28T03:58:28.822Z,5.18
2023-04-28T04:01:13.889Z,5.85
2023-04-28T04:03:59.623Z,5.28
2023-04-28T04:06:45.227Z,5.32
2023-04-28T04:09:31.465Z,5.35
2023-04-28T04:12:17.767Z,5.82
2023-04-28T04:15:03.560Z,4.90
2023-04-28T04:17:50.488Z,5.40
2023-04-28T04:20:35.976Z,5.45
2023-04-28T04:23:23.498Z,5.10
2023-04-28T04:26:09.329Z,5.35
2023-04-28T04:28:55.357Z,5.57
2023-04-28T04:31:41.039Z,5.03
2023-04-28T04:34:26.816Z,5.07
2023-04-28T04:37:12.747Z,4.68
2023-04-28T04:40:10.925Z,4.85
2023-04-28T04:43:03.386Z,4.90
2023-04-28T04:45:55.961Z,5.78
2023-04-28T04:48:41.092Z,5.72
2023-04-28T04:51:26.431Z,5.57
2023-04-28T04:54:11.748Z,5.13
2023-04-28T04:56:58.694Z,5.63
2023-04-28T05:00:02.562Z,5.07
2023-04-28T05:02:49.354Z,6.40
2023-04-28T05:05:36.526Z,5.13
2023-04-28T05:08:36.951Z,5.30
2023-04-28T05:11:22.353Z,5.50
2023-04-28T05:14:07.923Z,5.38
2023-04-28T05:16:53.217Z,5.05
2023-04-28T05:19:44.869Z,5.43
2023-04-28T05:22:31.263Z,5.63
2023-04-28T05:25:17.028Z,6.45
2023-04-28T05:28:07.270Z,5.80
2023-04-28T05:33:38.167Z,4.70
2023-04-28T05:36:23.582Z,4.78
2023-04-28T05:39:08.939Z,5.38
2023-04-28T05:41:54.418Z,5.03
2023-04-28T05:44:41.810Z,6.20
2023-04-28T05:47:29.430Z,5.18
2023-04-28T05:50:14.560Z,5.70
2023-04-28T05:52:59.791Z,5.20
2023-04-28T05:55:44.954Z,4.80
2023-04-28T05:58:31.610Z,5.00
2023-04-28T06:01:17.574Z,5.15
2023-04-28T06:04:03.253Z,6.32
2023-04-28T06:06:49.268Z,5.18
2023-04-28T06:09:34.805Z,5.30
2023-04-28T06:12:20.057Z,5.53
2023-04-28T06:15:06.466Z,5.53
2023-04-28T06:17:52.394Z,5.50
2023-04-28T06:20:37.975Z,4.68
2023-04-28T06:23:23.395Z,4.47
2023-04-28T06:26:09.869Z,5.15
2023-04-28T06:28:57.737Z,5.00
2023-04-28T06:31:43.262Z,5.20
2023-04-28T06:34:30.872Z,4.93
2023-04-28T06:37:16.858Z,5.32
2023-04-28T06:40:02.310Z,5.18
2023-04-28T06:42:48.349Z,4.68
2023-04-28T06:45:39.583Z,4.93
2023-04-28T06:48:25.962Z,6.18
2023-04-28T06:51:11.478Z,4.75
2023-04-28T06:53:57.132Z,4.53
2023-04-28T06:56:42.234Z,5.38
2023-04-28T06:59:27.680Z,5.60
2023-04-28T07:02:13.164Z,4.82
2023-04-28T07:04:58.354Z,4.57
2023-04-28T07:07:43.501Z,4.75
2023-04-28T07:10:28.865Z,5.60
2023-04-28T07:13:13.988Z,4.40
2023-04-28T07:15:59.529Z,4.82
2023-04-28T07:18:45.079Z,4.88
2023-04-28T07:21:30.464Z,4.95
2023-04-28T07:24:16.191Z,4.65
2023-04-28T07:27:01.855Z,3.97
2023-04-28T07:29:47.353Z,4.40
2023-04-28T07:32:32.938Z,3.80
2023-04-28T07:35:18.239Z,4.32
2023-04-28T07:38:03.929Z,4.45
2023-04-28T07:40:49.250Z,4.57
2023-04-28T07:43:34.529Z,4.10
2023-04-28T07:46:19.647Z,3.85
2023-04-28T07:49:04.923Z,4.38
2023-04-28T07:51:52.120Z,4.47
2023-04-28T07:54:37.656Z,4.15
2023-04-28T07:57:23.051Z,4.00
2023-04-28T08:00:09.659Z,5.28
2023-04-28T08:05:45.168Z,4.25
2023-04-28T08:08:30.833Z,4.57
2023-04-28T08:11:16.257Z,4.60
2023-04-28T08:14:02.998Z,4.65
2023-04-28T08:16:48.439Z,4.85
2023-04-28T08:19:33.585Z,4.78
2023-04-28T08:22:19.208Z,4.75
2023-04-28T08:25:04.741Z,3.50
2023-04-28T08:27:50.146Z,4.43
2023-04-28T08:30:35.842Z,4.28
2023-04-28T08:33:21.033Z,4.45
2023-04-28T08:36:07.005Z,4.63
2023-04-28T08:38:52.747Z,4.93
2023-04-28T08:41:42.080Z,4.30
2023-04-28T08:44:27.808Z,4.72
2023-04-28T08:47:14.500Z,4.75
2023-04-28T08:50:05.813Z,4.63
2023-04-28T08:52:56.778Z,4.30
2023-04-28T08:55:43.506Z,4.40
2023-04-28T08:58:28.767Z,4.28
2023-04-28T09:01:14.406Z,4.25
2023-04-28T09:04:03.908Z,4.78
2023-04-28T09:06:49.875Z,4.68
2023-04-28T09:09:37.174Z,4.68
2023-04-28T09:12:36.530Z,5.10
2023-04-28T09:15:42.198Z,4.80
2023-04-28T09:18:27.363Z,5.05
2023-04-28T09:21:13.290Z,4.85
2023-04-28T09:23:58.420Z,5.03
2023-04-28T09:26:50.668Z,4.68
2023-04-28T09:29:36.674Z,4.90
2023-04-28T09:32:23.499Z,5.53
2023-04-28T09:35:09.446Z,4.93
2023-04-28T09:37:58.998Z,4.80
2023-04-28T09:40:51.792Z,4.28
2023-04-28T09:43:37.013Z,5.22
2023-04-28T09:46:29.650Z,6.10
2023-04-28T09:49:15.348Z,4.63
2023-04-28T09:52:13.830Z,5.25
2023-04-28T09:55:02.089Z,5.13
2023-04-28T09:57:50.036Z,5.90
2023-04-28T10:00:36.310Z,4.78
2023-04-28T10:03:25.554Z,4.50
2023-04-28T10:06:12.018Z,4.50
2023-04-28T10:09:00.198Z,4.45
2023-04-28T10:11:46.084Z,5.30
2023-04-28T10:14:32.059Z,5.45
2023-04-28T10:17:17.744Z,5.20
2023-04-28T10:20:03.443Z,5.43
2023-04-28T10:23:17.319Z,5.70
2023-04-28T10:26:10.267Z,5.53
2023-04-28T10:28:55.821Z,5.22
2023-04-28T10:32:17.107Z,5.70
2023-04-28T10:35:28.498Z,5.50
2023-04-28T10:38:14.948Z,5.05
2023-04-28T10:41:03.286Z,5.22
2023-04-28T10:43:50.371Z,4.93
2023-04-28T10:47:07.467Z,8.43
2023-04-28T10:49:58.755Z,5.18
2023-04-28T10:52:44.321Z,5.32
2023-04-28T10:55:37.408Z,5.18
2023-04-28T10:58:29.944Z,5.63
2023-04-28T11:01:18.977Z,5.05
2023-04-28T11:04:14.135Z,5.53
2023-04-28T11:07:11.451Z,6.05
2023-04-28T11:09:57.952Z,5.88
2023-04-28T11:13:21.276Z,5.22
2023-04-28T11:16:06.986Z,5.00
2023-04-28T11:19:04.694Z,4.85
2023-04-28T11:21:51.879Z,5.43
2023-04-28T11:24:37.786Z,4.88
2023-04-28T11:27:27.730Z,5.68
2023-04-28T11:33:09.491Z,5.80
2023-04-28T11:35:54.576Z,5.38
2023-04-28T11:38:44.531Z,6.22
2023-04-28T11:41:30.016Z,5.93
2023-04-28T11:44:18.684Z,6.57
2023-04-28T11:47:06.395Z,6.45
2023-04-28T11:49:52.008Z,6.13
2023-04-28T11:52:47.712Z,5.60
2023-04-28T11:55:33.245Z,5.32
2023-04-28T11:58:23.830Z,5.00
2023-04-28T12:01:17.051Z,5.95
2023-04-28T12:04:02.460Z,5.20
2023-04-28T12:06:47.717Z,6.40
2023-04-28T12:09:35.363Z,6.03
2023-04-28T12:12:40.550Z,5.45
2023-04-28T12:15:41.442Z,5.82
2023-04-28T12:18:27.555Z,5.05
2023-04-28T12:21:21.818Z,5.47
2023-04-28T12:24:19.937Z,5.55
2023-04-28T12:27:21.718Z,5.97
2023-04-28T12:30:08.202Z,5.40
2023-04-28T12:32:54.360Z,5.80
2023-04-28T12:35:39.813Z,6.15
2023-04-28T12:38:25.720Z,6.55
2023-04-28T12:41:11.729Z,5.57
2023-04-28T12:43:57.469Z,5.72
2023-04-28T12:46:43.026Z,5.15
2023-04-28T12:49:28.468Z,5.20
2023-04-28T12:52:13.975Z,4.70
2023-04-28T12:54:59.985Z,5.93
2023-04-28T12:57:45.158Z,5.53
2023-04-28T13:00:31.133Z,5.63
2023-04-28T13:03:17.305Z,5.93
2023-04-28T13:06:04.197Z,5.20
2023-04-28T13:08:49.388Z,5.68
2023-04-28T13:11:35.137Z,5.25
2023-04-28T13:14:20.962Z,5.80
2023-04-28T13:17:06.579Z,5.55
2023-04-28T13:19:51.792Z,5.15
2023-04-28T13:22:37.098Z,6.10
2023-04-28T13:25:22.612Z,5.25
2023-04-28T13:28:07.905Z,5.18
2023-04-28T13:30:53.226Z,5.25
2023-04-28T13:33:39.213Z,5.18
2023-04-28T13:36:25.571Z,5.40
2023-04-28T13:39:11.750Z,6.75
2023-04-28T13:41:57.120Z,4.45
2023-04-28T13:44:42.429Z,5.65
2023-04-28T13:47:28.257Z,5.18
2023-04-28T13:50:13.782Z,6.20
2023-04-28T13:52:59.421Z,5.90
2023-04-28T13:55:45.404Z,5.95
2023-04-28T13:58:30.706Z,5.95
2023-04-28T14:01:16.106Z,5.85
2023-04-28T14:04:01.488Z,7.55
2023-04-28T14:06:47.097Z,6.60
2023-04-28T14:09:32.744Z,5.15
2023-04-28T14:12:18.272Z,5.65
2023-04-28T14:15:05.675Z,5.82
2023-04-28T14:17:50.995Z,6.03
2023-04-28T14:20:36.264Z,6.22
2023-04-28T14:23:22.875Z,6.22
2023-04-28T14:26:08.046Z,5.93
2023-04-28T14:28:54.060Z,6.25
2023-04-28T14:31:39.460Z,6.78
2023-04-28T14:34:25.120Z,6.63
2023-04-28T14:37:10.437Z,7.00
2023-04-28T14:39:55.839Z,5.50
2023-04-28T14:42:41.073Z,5.53
2023-04-28T14:45:26.363Z,6.32
2023-04-28T14:48:13.257Z,5.85
2023-04-28T14:50:58.607Z,5.53
2023-04-28T14:53:46.958Z,5.50
2023-04-28T14:56:33.906Z,5.60
2023-04-28T14:59:19.550Z,5.60
2023-04-28T15:02:05.141Z,5.57
2023-04-28T15:04:51.462Z,5.90
2023-04-28T15:07:36.976Z,5.53
2023-04-28T15:10:22.232Z,4.93
2023-04-28T15:13:07.647Z,4.95
2023-04-28T15:15:53.382Z,6.07
2023-04-28T15:18:39.421Z,6.45
2023-04-28T15:21:24.837Z,6.28
2023-04-28T15:24:13.056Z,7.75
2023-04-28T15:26:58.673Z,6.25
2023-04-28T15:29:43.859Z,6.43
2023-04-28T15:32:31.567Z,7.10
2023-04-28T15:35:17.121Z,7.80
2023-04-28T15:38:02.532Z,7.22
2023-04-28T15:40:47.820Z,7.38
2023-04-28T15:43:32.984Z,7.38
2023-04-28T15:46:18.188Z,7.28
2023-04-28T15:49:05.910Z,8.13
2023-04-28T15:51:52.112Z,8.30
2023-04-28T15:54:39.491Z,7.60
2023-04-28T15:57:24.751Z,7.50
2023-04-28T16:00:11.407Z,8.93
2023-04-28T16:02:56.990Z,8.85
2023-04-28T16:05:41.985Z,7.55
2023-04-28T16:08:29.057Z,7.25
2023-04-28T16:11:17.775Z,7.45
2023-04-28T16:14:04.089Z,7.90
2023-04-28T16:16:50.570Z,7.28
2023-04-28T16:19:39.215Z,8.30
2023-04-28T16:22:25.265Z,8.82
2023-04-28T16:25:11.627Z,9.35
2023-04-28T16:27:57.075Z,11.18
2023-04-28T16:30:43.358Z,9.93
2023-04-28T16:33:28.636Z,9.48
2023-04-28T16:36:13.841Z,8.27
2023-04-28T16:38:59.288Z,8.55
2023-04-28T16:41:44.616Z,8.45
2023-04-28T16:44:30.573Z,8.23
2023-04-28T16:47:16.035Z,8.52
2023-04-28T16:50:01.239Z,8.98
2023-04-28T16:52:46.352Z,10.02
2023-04-28T16:55:31.700Z,7.43
2023-04-28T16:58:17.036Z,8.23
2023-04-28T17:01:02.483Z,7.85
2023-04-28T17:03:50.598Z,9.13
2023-04-28T17:06:35.974Z,8.57
2023-04-28T17:09:22.301Z,8.95
2023-04-28T17:12:07.660Z,9.20
2023-04-28T17:14:53.127Z,9.02
2023-04-28T17:17:38.643Z,9.85
2023-04-28T17:20:24.454Z,9.90
2023-04-28T17:23:10.238Z,9.60
2023-04-28T17:25:55.833Z,9.70
2023-04-28T17:28:41.443Z,10.23
2023-04-28T17:31:29.795Z,10.90
2023-04-28T17:34:15.661Z,10.73
2023-04-28T17:37:00.821Z,11.10
2023-04-28T17:39:49.611Z,11.02
2023-04-28T17:42:34.958Z,11.02
2023-04-28T17:45:20.213Z,10.88
2023-04-28T17:48:06.027Z,11.00
2023-04-28T17:50:52.433Z,11.57
2023-04-28T17:53:39.123Z,12.27
2023-04-28T17:56:24.538Z,12.90
2023-04-28T17:59:09.696Z,11.98
2023-04-28T18:01:56.326Z,11.52
2023-04-28T18:04:41.900Z,11.73
2023-04-28T18:07:27.545Z,10.73
2023-04-28T18:10:13.095Z,11.90
2023-04-28T18:12:59.225Z,11.82
2023-04-28T18:15:46.236Z,12.27
2023-04-28T18:18:34.794Z,9.98
2023-04-28T18:21:20.590Z,11.52
2023-04-28T18:24:06.335Z,11.23
2023-04-28T18:26:51.464Z,10.15
2023-04-28T18:29:36.746Z,10.05
2023-04-28T18:32:22.398Z,11.43
2023-04-28T18:35:07.925Z,9.40
2023-04-28T18:37:53.429Z,11.45
2023-04-28T18:40:39.757Z,10.63
2023-04-28T18:43:25.869Z,10.88
2023-04-28T18:46:11.167Z,11.82
2023-04-28T18:48:56.449Z,9.52
2023-04-28T18:51:42.185Z,14.82
2023-04-28T18:54:28.897Z,11.13
2023-04-28T18:57:16.806Z,11.88
2023-04-28T19:00:02.174Z,11.32
2023-04-28T19:02:47.557Z,11.73
2023-04-28T19:05:33.956Z,12.15
2023-04-28T19:08:19.557Z,12.25
2023-04-28T19:11:06.760Z,10.98
2023-04-28T19:13:52.354Z,10.07
2023-04-28T19:16:40.629Z,8.93
2023-04-28T19:19:26.031Z,8.65
2023-04-28T19:22:37.430Z,8.30
2023-04-28T19:25:23.228Z,9.50
2023-04-28T19:28:10.887Z,10.70
2023-04-28T19:30:57.640Z,9.68
2023-04-28T19:33:43.145Z,9.95
2023-04-28T19:36:28.645Z,10.23
2023-04-28T19:39:14.056Z,10.10
2023-04-28T19:41:59.854Z,9.00
2023-04-28T19:44:47.444Z,10.68
2023-04-28T19:47:36.819Z,9.88
2023-04-28T19:50:21.952Z,9.25
2023-04-28T19:53:08.001Z,9.20
2023-04-28T19:55:53.343Z,9.82
2023-04-28T19:58:39.788Z,9.52
2023-04-28T20:01:25.171Z,8.73
2023-04-28T20:04:13.738Z,10.77
2023-04-28T20:06:59.514Z,11.90
2023-04-28T20:09:44.891Z,9.52
2023-04-28T20:12:30.371Z,10.07
2023-04-28T20:15:18.000Z,9.65
2023-04-28T20:18:03.377Z,9.00
2023-04-28T20:20:52.451Z,9.15
2023-04-28T20:23:38.209Z,8.80
2023-04-28T20:26:23.263Z,9.70
2023-04-28T20:29:09.081Z,8.85
2023-04-28T20:31:55.180Z,9.55
2023-04-28T20:34:41.260Z,9.63
2023-04-28T20:37:26.628Z,9.75
2023-04-28T20:40:12.565Z,9.48
2023-04-28T20:42:58.744Z,10.30
2023-04-28T20:45:44.424Z,9.88
2023-04-28T20:48:29.994Z,9.05
2023-04-28T20:51:15.493Z,9.70
2023-04-28T20:54:01.538Z,10.07
2023-04-28T20:56:47.099Z,8.75
2023-04-28T20:59:33.048Z,10.73
2023-04-28T21:02:18.482Z,9.88
2023-04-28T21:05:04.031Z,10.38
2023-04-28T21:07:49.213Z,9.70
2023-04-28T21:10:34.316Z,10.68
2023-04-28T21:13:19.882Z,8.65
2023-04-28T21:16:05.639Z,9.20
2023-04-28T21:18:51.084Z,8.43
2023-04-28T21:21:37.476Z,8.13
2023-04-28T21:24:22.974Z,8.15
2023-04-28T21:27:09.020Z,7.88
2023-04-28T21:29:54.324Z,8.13
2023-04-28T21:32:42.543Z,8.50
2023-04-28T21:35:28.669Z,8.45
2023-04-28T21:38:14.413Z,8.27
2023-04-28T21:41:00.363Z,8.48
2023-04-28T21:43:45.912Z,7.80
2023-04-28T21:46:31.225Z,8.23
2023-04-28T21:49:16.440Z,9.00
2023-04-28T21:52:05.116Z,9.43
2023-04-28T21:54:50.863Z,7.72
2023-04-28T21:57:36.734Z,7.68
2023-04-28T22:00:23.843Z,8.23
2023-04-28T22:03:10.221Z,8.52
2023-04-28T22:05:56.499Z,8.15
2023-04-28T22:08:41.768Z,7.80
2023-04-28T22:11:28.100Z,6.85
2023-04-28T22:14:21.493Z,8.18
2023-04-28T22:17:18.792Z,8.35
2023-04-28T22:20:05.224Z,7.82
2023-04-28T22:22:51.390Z,7.53
2023-04-28T22:25:36.660Z,8.77
2023-04-28T22:28:22.597Z,8.50
2023-04-28T22:31:08.265Z,7.63
2023-04-28T22:33:53.699Z,7.72
2023-04-28T22:36:39.261Z,7.70
2023-04-28T22:39:25.174Z,8.18
2023-04-28T22:42:10.704Z,7.78
2023-04-28T22:44:55.783Z,7.55
2023-04-28T22:47:41.742Z,7.45
2023-04-28T22:50:28.861Z,8.02
2023-04-28T22:53:13.830Z,7.85
2023-04-28T22:56:02.830Z,7.53
2023-04-28T22:58:48.294Z,7.73
2023-04-28T23:01:33.982Z,7.05
2023-04-28T23:04:20.303Z,7.55
2023-04-28T23:07:06.990Z,7.95
2023-04-28T23:09:52.703Z,7.40
2023-04-28T23:12:38.292Z,7.38
2023-04-28T23:15:23.589Z,7.35
2023-04-28T23:18:09.052Z,7.07
2023-04-28T23:20:54.569Z,7.63
2023-04-28T23:23:40.103Z,7.63
2023-04-28T23:26:26.098Z,6.68
2023-04-28T23:29:11.474Z,7.13
2023-04-28T23:31:56.756Z,7.22
2023-04-28T23:34:42.647Z,7.10
2023-04-28T23:37:28.045Z,7.28
2023-04-28T23:40:13.781Z,7.63
2023-04-28T23:42:59.183Z,6.85
2023-04-28T23:45:44.429Z,7.50
2023-04-28T23:48:29.838Z,6.63
2023-04-28T23:51:15.056Z,8.23
2023-04-28T23:54:01.726Z,6.80
2023-04-28T23:56:47.246Z,7.30
2023-04-28T23:59:32.542Z,6.65
